sensor_id;sensor_type;location;lat;lon;timestamp;temperature;humidity
50548;DHT22;38013;48.810;8.818;2022-09-09T00:02:14;17.50;67.20
50548;DHT22;38013;48.810;8.818;2022-09-09T00:04:59;17.50;67.80
50548;DHT22;38013;48.810;8.818;2022-09-09T00:10:29;17.50;67.40
50548;DHT22;38013;48.810;8.818;2022-09-09T00:13:19;17.50;67.70
50548;DHT22;38013;48.810;8.818;2022-09-09T00:19:05;17.60;67.20
50548;DHT22;38013;48.810;8.818;2022-09-09T00:21:36;17.60;67.10
50548;DHT22;38013;48.810;8.818;2022-09-09T00:24:26;17.60;67.00
50548;DHT22;38013;48.810;8.818;2022-09-09T00:27:07;17.60;67.50
50548;DHT22;38013;48.810;8.818;2022-09-09T00:29:43;17.70;66.90
50548;DHT22;38013;48.810;8.818;2022-09-09T00:32:19;17.70;67.00
50548;DHT22;38013;48.810;8.818;2022-09-09T00:34:52;17.70;66.70
50548;DHT22;38013;48.810;8.818;2022-09-09T00:37:23;17.70;67.20
50548;DHT22;38013;48.810;8.818;2022-09-09T00:39:52;17.80;67.20
50548;DHT22;38013;48.810;8.818;2022-09-09T00:42:27;17.80;66.80
50548;DHT22;38013;48.810;8.818;2022-09-09T00:45:52;17.80;66.70
50548;DHT22;38013;48.810;8.818;2022-09-09T00:48:10;17.90;66.70
50548;DHT22;38013;48.810;8.818;2022-09-09T00:50:56;17.90;66.50
50548;DHT22;38013;48.810;8.818;2022-09-09T00:56:07;17.90;66.30
50548;DHT22;38013;48.810;8.818;2022-09-09T00:58:38;18.00;66.30
50548;DHT22;38013;48.810;8.818;2022-09-09T01:01:12;18.00;66.30
50548;DHT22;38013;48.810;8.818;2022-09-09T01:03:46;18.00;66.50
50548;DHT22;38013;48.810;8.818;2022-09-09T01:06:22;18.00;66.30
50548;DHT22;38013;48.810;8.818;2022-09-09T01:12:15;18.00;66.00
50548;DHT22;38013;48.810;8.818;2022-09-09T01:14:49;18.00;65.90
50548;DHT22;38013;48.810;8.818;2022-09-09T01:17:21;18.00;65.90
50548;DHT22;38013;48.810;8.818;2022-09-09T01:20:03;18.00;65.80
50548;DHT22;38013;48.810;8.818;2022-09-09T01:26:09;18.00;66.00
50548;DHT22;38013;48.810;8.818;2022-09-09T01:28:41;18.10;66.20
50548;DHT22;38013;48.810;8.818;2022-09-09T01:31:17;18.10;65.80
50548;DHT22;38013;48.810;8.818;2022-09-09T01:33:53;18.10;66.10
50548;DHT22;38013;48.810;8.818;2022-09-09T01:36:26;18.10;65.80
50548;DHT22;38013;48.810;8.818;2022-09-09T01:38:55;18.10;66.20
50548;DHT22;38013;48.810;8.818;2022-09-09T01:41:22;18.10;66.20
50548;DHT22;38013;48.810;8.818;2022-09-09T01:43:56;18.10;66.20
50548;DHT22;38013;48.810;8.818;2022-09-09T01:46:25;18.10;66.00
50548;DHT22;38013;48.810;8.818;2022-09-09T01:48:52;18.10;66.10
50548;DHT22;38013;48.810;8.818;2022-09-09T01:51:19;18.10;66.30
50548;DHT22;38013;48.810;8.818;2022-09-09T01:53:47;18.10;66.80
50548;DHT22;38013;48.810;8.818;2022-09-09T01:56:35;18.10;66.60
50548;DHT22;38013;48.810;8.818;2022-09-09T02:02:18;18.10;67.20
50548;DHT22;38013;48.810;8.818;2022-09-09T02:07:48;18.10;66.80
50548;DHT22;38013;48.810;8.818;2022-09-09T02:10:30;18.10;67.30
50548;DHT22;38013;48.810;8.818;2022-09-09T02:13:13;18.00;67.10
50548;DHT22;38013;48.810;8.818;2022-09-09T02:16:40;18.00;67.10
50548;DHT22;38013;48.810;8.818;2022-09-09T02:19:11;18.00;67.80
50548;DHT22;38013;48.810;8.818;2022-09-09T02:22:02;18.00;68.00
50548;DHT22;38013;48.810;8.818;2022-09-09T02:24:30;18.00;67.30
50548;DHT22;38013;48.810;8.818;2022-09-09T02:27:12;17.90;67.50
50548;DHT22;38013;48.810;8.818;2022-09-09T02:29:42;17.80;67.70
50548;DHT22;38013;48.810;8.818;2022-09-09T02:32:13;17.80;67.80
50548;DHT22;38013;48.810;8.818;2022-09-09T02:34:46;17.80;68.10
50548;DHT22;38013;48.810;8.818;2022-09-09T02:37:15;17.70;68.10
50548;DHT22;38013;48.810;8.818;2022-09-09T02:39:47;17.70;68.30
50548;DHT22;38013;48.810;8.818;2022-09-09T02:42:16;17.60;68.30
50548;DHT22;38013;48.810;8.818;2022-09-09T02:44:44;17.60;68.30
50548;DHT22;38013;48.810;8.818;2022-09-09T02:47:34;17.50;68.50
50548;DHT22;38013;48.810;8.818;2022-09-09T02:50:25;17.50;69.30
50548;DHT22;38013;48.810;8.818;2022-09-09T02:53:17;17.40;69.40
50548;DHT22;38013;48.810;8.818;2022-09-09T02:56:02;17.40;69.80
50548;DHT22;38013;48.810;8.818;2022-09-09T02:58:32;17.40;69.60
50548;DHT22;38013;48.810;8.818;2022-09-09T03:01:03;17.30;69.00
50548;DHT22;38013;48.810;8.818;2022-09-09T03:03:30;17.30;69.20
50548;DHT22;38013;48.810;8.818;2022-09-09T03:05:57;17.20;69.20
50548;DHT22;38013;48.810;8.818;2022-09-09T03:08:25;17.20;69.30
50548;DHT22;38013;48.810;8.818;2022-09-09T03:10:54;17.10;69.30
50548;DHT22;38013;48.810;8.818;2022-09-09T03:13:21;17.10;69.50
50548;DHT22;38013;48.810;8.818;2022-09-09T03:15:48;17.00;69.40
50548;DHT22;38013;48.810;8.818;2022-09-09T03:18:16;17.00;69.50
50548;DHT22;38013;48.810;8.818;2022-09-09T03:20:47;17.00;69.40
50548;DHT22;38013;48.810;8.818;2022-09-09T03:23:17;16.90;69.50
50548;DHT22;38013;48.810;8.818;2022-09-09T03:25:48;16.90;69.50
50548;DHT22;38013;48.810;8.818;2022-09-09T03:28:18;16.90;69.70
50548;DHT22;38013;48.810;8.818;2022-09-09T03:30:44;16.80;69.50
50548;DHT22;38013;48.810;8.818;2022-09-09T03:33:10;16.80;69.50
50548;DHT22;38013;48.810;8.818;2022-09-09T03:35:37;16.80;69.50
50548;DHT22;38013;48.810;8.818;2022-09-09T03:38:03;16.80;69.50
50548;DHT22;38013;48.810;8.818;2022-09-09T03:40:31;16.80;69.40
50548;DHT22;38013;48.810;8.818;2022-09-09T03:42:57;16.70;69.40
50548;DHT22;38013;48.810;8.818;2022-09-09T03:45:24;16.80;69.50
50548;DHT22;38013;48.810;8.818;2022-09-09T03:47:50;16.70;69.70
50548;DHT22;38013;48.810;8.818;2022-09-09T03:50:16;16.70;70.30
50548;DHT22;38013;48.810;8.818;2022-09-09T03:52:45;16.70;69.80
50548;DHT22;38013;48.810;8.818;2022-09-09T03:55:17;16.60;69.80
50548;DHT22;38013;48.810;8.818;2022-09-09T03:57:43;16.60;69.80
50548;DHT22;38013;48.810;8.818;2022-09-09T04:00:09;16.60;70.00
50548;DHT22;38013;48.810;8.818;2022-09-09T04:02:50;16.60;70.10
50548;DHT22;38013;48.810;8.818;2022-09-09T04:05:19;16.60;70.20
50548;DHT22;38013;48.810;8.818;2022-09-09T04:07:46;16.50;70.30
50548;DHT22;38013;48.810;8.818;2022-09-09T04:10:12;16.50;70.40
50548;DHT22;38013;48.810;8.818;2022-09-09T04:12:39;16.50;70.60
50548;DHT22;38013;48.810;8.818;2022-09-09T04:15:05;16.50;70.60
50548;DHT22;38013;48.810;8.818;2022-09-09T04:17:33;16.50;70.70
50548;DHT22;38013;48.810;8.818;2022-09-09T04:20:02;16.50;70.70
50548;DHT22;38013;48.810;8.818;2022-09-09T04:22:28;16.50;70.60
50548;DHT22;38013;48.810;8.818;2022-09-09T04:24:53;16.50;70.60
50548;DHT22;38013;48.810;8.818;2022-09-09T04:27:20;16.50;70.50
50548;DHT22;38013;48.810;8.818;2022-09-09T04:29:45;16.50;70.50
50548;DHT22;38013;48.810;8.818;2022-09-09T04:32:12;16.50;70.40
50548;DHT22;38013;48.810;8.818;2022-09-09T04:34:39;16.40;70.40
50548;DHT22;38013;48.810;8.818;2022-09-09T04:37:06;16.50;70.40
50548;DHT22;38013;48.810;8.818;2022-09-09T04:39:32;16.40;70.30
50548;DHT22;38013;48.810;8.818;2022-09-09T04:41:59;16.40;70.40
50548;DHT22;38013;48.810;8.818;2022-09-09T04:44:25;16.40;70.40
50548;DHT22;38013;48.810;8.818;2022-09-09T04:46:53;16.40;70.40
50548;DHT22;38013;48.810;8.818;2022-09-09T04:49:19;16.40;70.50
50548;DHT22;38013;48.810;8.818;2022-09-09T04:51:45;16.40;70.50
50548;DHT22;38013;48.810;8.818;2022-09-09T04:54:12;16.40;70.50
50548;DHT22;38013;48.810;8.818;2022-09-09T04:56:39;16.30;70.60
50548;DHT22;38013;48.810;8.818;2022-09-09T04:59:06;16.40;70.70
50548;DHT22;38013;48.810;8.818;2022-09-09T05:01:39;16.30;70.70
50548;DHT22;38013;48.810;8.818;2022-09-09T05:04:06;16.30;70.80
50548;DHT22;38013;48.810;8.818;2022-09-09T05:06:33;16.30;70.80
50548;DHT22;38013;48.810;8.818;2022-09-09T05:09:00;16.30;70.80
50548;DHT22;38013;48.810;8.818;2022-09-09T05:11:32;16.30;70.90
50548;DHT22;38013;48.810;8.818;2022-09-09T05:14:07;16.30;71.00
50548;DHT22;38013;48.810;8.818;2022-09-09T05:16:35;16.30;70.80
50548;DHT22;38013;48.810;8.818;2022-09-09T05:19:00;16.30;70.80
50548;DHT22;38013;48.810;8.818;2022-09-09T05:21:39;16.30;70.90
50548;DHT22;38013;48.810;8.818;2022-09-09T05:24:07;16.30;70.80
50548;DHT22;38013;48.810;8.818;2022-09-09T05:26:33;16.40;70.90
50548;DHT22;38013;48.810;8.818;2022-09-09T05:28:59;16.40;70.70
50548;DHT22;38013;48.810;8.818;2022-09-09T05:31:26;16.40;70.70
50548;DHT22;38013;48.810;8.818;2022-09-09T05:33:54;16.50;70.70
50548;DHT22;38013;48.810;8.818;2022-09-09T05:36:21;16.50;70.70
50548;DHT22;38013;48.810;8.818;2022-09-09T05:38:50;16.50;70.70
50548;DHT22;38013;48.810;8.818;2022-09-09T05:41:19;16.50;70.60
50548;DHT22;38013;48.810;8.818;2022-09-09T05:43:46;16.60;70.70
50548;DHT22;38013;48.810;8.818;2022-09-09T05:46:21;16.60;70.60
50548;DHT22;38013;48.810;8.818;2022-09-09T05:48:51;16.60;70.90
50548;DHT22;38013;48.810;8.818;2022-09-09T05:51:22;16.60;70.80
50548;DHT22;38013;48.810;8.818;2022-09-09T05:53:50;16.60;70.80
50548;DHT22;38013;48.810;8.818;2022-09-09T05:56:23;16.60;70.70
50548;DHT22;38013;48.810;8.818;2022-09-09T05:58:52;16.60;70.70
50548;DHT22;38013;48.810;8.818;2022-09-09T06:01:24;16.60;70.60
50548;DHT22;38013;48.810;8.818;2022-09-09T06:03:52;16.60;70.50
50548;DHT22;38013;48.810;8.818;2022-09-09T06:06:22;16.60;70.40
50548;DHT22;38013;48.810;8.818;2022-09-09T06:08:54;16.60;70.40
50548;DHT22;38013;48.810;8.818;2022-09-09T06:11:28;16.60;70.60
50548;DHT22;38013;48.810;8.818;2022-09-09T06:13:59;16.60;70.40
50548;DHT22;38013;48.810;8.818;2022-09-09T06:16:27;16.60;70.40
50548;DHT22;38013;48.810;8.818;2022-09-09T06:18:55;16.60;70.40
50548;DHT22;38013;48.810;8.818;2022-09-09T06:21:28;16.60;70.40
50548;DHT22;38013;48.810;8.818;2022-09-09T06:23:56;16.60;70.50
50548;DHT22;38013;48.810;8.818;2022-09-09T06:26:27;16.60;70.50
50548;DHT22;38013;48.810;8.818;2022-09-09T06:28:56;16.70;70.80
50548;DHT22;38013;48.810;8.818;2022-09-09T06:31:26;16.70;70.80
50548;DHT22;38013;48.810;8.818;2022-09-09T06:33:57;16.70;71.10
50548;DHT22;38013;48.810;8.818;2022-09-09T06:36:29;16.80;71.20
50548;DHT22;38013;48.810;8.818;2022-09-09T06:38:56;16.90;71.30
50548;DHT22;38013;48.810;8.818;2022-09-09T06:41:25;17.00;71.10
50548;DHT22;38013;48.810;8.818;2022-09-09T06:43:52;17.10;71.10
50548;DHT22;38013;48.810;8.818;2022-09-09T06:46:27;17.20;71.10
50548;DHT22;38013;48.810;8.818;2022-09-09T06:48:56;17.30;70.90
50548;DHT22;38013;48.810;8.818;2022-09-09T06:51:24;17.40;70.70
50548;DHT22;38013;48.810;8.818;2022-09-09T06:53:54;17.60;70.70
50548;DHT22;38013;48.810;8.818;2022-09-09T06:56:37;17.60;70.10
50548;DHT22;38013;48.810;8.818;2022-09-09T06:59:09;17.70;69.80
50548;DHT22;38013;48.810;8.818;2022-09-09T07:01:38;17.80;69.70
50548;DHT22;38013;48.810;8.818;2022-09-09T07:04:15;17.80;69.50
50548;DHT22;38013;48.810;8.818;2022-09-09T07:06:45;18.00;69.40
50548;DHT22;38013;48.810;8.818;2022-09-09T07:09:16;18.00;69.40
50548;DHT22;38013;48.810;8.818;2022-09-09T07:11:49;18.10;69.40
50548;DHT22;38013;48.810;8.818;2022-09-09T07:14:20;18.20;69.60
50548;DHT22;38013;48.810;8.818;2022-09-09T07:16:52;18.30;69.70
50548;DHT22;38013;48.810;8.818;2022-09-09T07:19:18;18.40;69.60
50548;DHT22;38013;48.810;8.818;2022-09-09T07:21:47;18.40;69.40
50548;DHT22;38013;48.810;8.818;2022-09-09T07:24:16;18.60;69.40
50548;DHT22;38013;48.810;8.818;2022-09-09T07:26:43;18.70;68.70
50548;DHT22;38013;48.810;8.818;2022-09-09T07:29:11;18.80;68.40
50548;DHT22;38013;48.810;8.818;2022-09-09T07:31:39;18.80;68.30
50548;DHT22;38013;48.810;8.818;2022-09-09T07:34:09;19.00;68.30
50548;DHT22;38013;48.810;8.818;2022-09-09T07:36:39;19.10;68.00
50548;DHT22;38013;48.810;8.818;2022-09-09T07:39:10;19.20;67.70
50548;DHT22;38013;48.810;8.818;2022-09-09T07:41:42;19.30;67.30
50548;DHT22;38013;48.810;8.818;2022-09-09T07:44:17;19.30;67.30
50548;DHT22;38013;48.810;8.818;2022-09-09T07:46:49;19.50;67.40
50548;DHT22;38013;48.810;8.818;2022-09-09T07:49:19;19.60;67.00
50548;DHT22;38013;48.810;8.818;2022-09-09T07:51:46;19.60;66.30
50548;DHT22;38013;48.810;8.818;2022-09-09T07:54:15;19.70;66.20
50548;DHT22;38013;48.810;8.818;2022-09-09T07:56:47;19.70;66.00
50548;DHT22;38013;48.810;8.818;2022-09-09T07:59:13;19.70;66.10
50548;DHT22;38013;48.810;8.818;2022-09-09T08:01:46;19.80;65.70
50548;DHT22;38013;48.810;8.818;2022-09-09T08:04:18;19.80;65.60
50548;DHT22;38013;48.810;8.818;2022-09-09T08:06:51;19.90;66.20
50548;DHT22;38013;48.810;8.818;2022-09-09T08:09:21;19.90;66.40
50548;DHT22;38013;48.810;8.818;2022-09-09T08:11:50;20.00;66.00
50548;DHT22;38013;48.810;8.818;2022-09-09T08:14:16;20.10;66.00
50548;DHT22;38013;48.810;8.818;2022-09-09T08:16:45;20.20;66.40
50548;DHT22;38013;48.810;8.818;2022-09-09T08:19:15;20.30;65.50
50548;DHT22;38013;48.810;8.818;2022-09-09T08:21:43;20.50;65.50
50548;DHT22;38013;48.810;8.818;2022-09-09T08:24:11;20.50;65.30
50548;DHT22;38013;48.810;8.818;2022-09-09T08:26:44;20.70;65.00
50548;DHT22;38013;48.810;8.818;2022-09-09T08:29:14;20.80;64.40
50548;DHT22;38013;48.810;8.818;2022-09-09T08:31:41;20.80;64.30
50548;DHT22;38013;48.810;8.818;2022-09-09T08:34:14;20.90;64.20
50548;DHT22;38013;48.810;8.818;2022-09-09T08:36:44;20.90;64.00
50548;DHT22;38013;48.810;8.818;2022-09-09T08:39:14;20.90;63.90
50548;DHT22;38013;48.810;8.818;2022-09-09T08:41:55;21.00;63.80
50548;DHT22;38013;48.810;8.818;2022-09-09T08:47:53;21.00;60.90
50548;DHT22;38013;48.810;8.818;2022-09-09T08:50:25;21.00;61.10
50548;DHT22;38013;48.810;8.818;2022-09-09T08:53:15;21.10;60.20
50548;DHT22;38013;48.810;8.818;2022-09-09T08:56:18;21.00;60.60
50548;DHT22;38013;48.810;8.818;2022-09-09T08:58:53;21.10;61.00
50548;DHT22;38013;48.810;8.818;2022-09-09T09:01:45;21.10;60.90
50548;DHT22;38013;48.810;8.818;2022-09-09T09:04:55;21.10;61.00
50548;DHT22;38013;48.810;8.818;2022-09-09T09:07:55;21.20;60.50
50548;DHT22;38013;48.810;8.818;2022-09-09T09:10:45;21.20;60.40
50548;DHT22;38013;48.810;8.818;2022-09-09T09:13:26;21.20;60.30
50548;DHT22;38013;48.810;8.818;2022-09-09T09:16:11;21.30;60.70
50548;DHT22;38013;48.810;8.818;2022-09-09T09:18:48;21.30;59.80
50548;DHT22;38013;48.810;8.818;2022-09-09T09:24:00;21.40;60.00
50548;DHT22;38013;48.810;8.818;2022-09-09T09:26:35;21.40;60.00
50548;DHT22;38013;48.810;8.818;2022-09-09T09:29:12;21.50;60.60
50548;DHT22;38013;48.810;8.818;2022-09-09T09:31:55;21.50;59.90
50548;DHT22;38013;48.810;8.818;2022-09-09T09:34:24;21.60;59.20
50548;DHT22;38013;48.810;8.818;2022-09-09T09:36:56;21.70;59.40
50548;DHT22;38013;48.810;8.818;2022-09-09T09:39:30;21.80;58.50
50548;DHT22;38013;48.810;8.818;2022-09-09T09:42:11;21.90;57.70
50548;DHT22;38013;48.810;8.818;2022-09-09T09:44:41;22.00;55.90
50548;DHT22;38013;48.810;8.818;2022-09-09T09:47:19;22.10;57.10
50548;DHT22;38013;48.810;8.818;2022-09-09T09:49:58;22.10;56.60
50548;DHT22;38013;48.810;8.818;2022-09-09T09:52:29;22.20;56.00
50548;DHT22;38013;48.810;8.818;2022-09-09T09:54:58;22.30;56.20
50548;DHT22;38013;48.810;8.818;2022-09-09T09:57:29;22.40;56.70
50548;DHT22;38013;48.810;8.818;2022-09-09T10:00:24;22.50;56.40
50548;DHT22;38013;48.810;8.818;2022-09-09T10:02:59;22.60;55.00
50548;DHT22;38013;48.810;8.818;2022-09-09T10:05:30;22.70;54.70
50548;DHT22;38013;48.810;8.818;2022-09-09T10:08:12;22.80;52.60
50548;DHT22;38013;48.810;8.818;2022-09-09T10:11:29;22.70;51.80
50548;DHT22;38013;48.810;8.818;2022-09-09T10:17:23;22.60;51.00
50548;DHT22;38013;48.810;8.818;2022-09-09T10:22:35;22.50;51.40
50548;DHT22;38013;48.810;8.818;2022-09-09T10:25:07;22.50;52.30
50548;DHT22;38013;48.810;8.818;2022-09-09T10:28:22;22.50;52.00
50548;DHT22;38013;48.810;8.818;2022-09-09T10:31:15;22.60;52.40
50548;DHT22;38013;48.810;8.818;2022-09-09T10:34:29;22.70;51.60
50548;DHT22;38013;48.810;8.818;2022-09-09T10:37:16;22.80;52.80
50548;DHT22;38013;48.810;8.818;2022-09-09T10:42:59;23.10;52.90
50548;DHT22;38013;48.810;8.818;2022-09-09T10:45:35;23.20;53.50
50548;DHT22;38013;48.810;8.818;2022-09-09T10:51:21;22.90;53.30
50548;DHT22;38013;48.810;8.818;2022-09-09T10:54:07;22.70;53.60
50548;DHT22;38013;48.810;8.818;2022-09-09T10:56:54;22.50;54.20
50548;DHT22;38013;48.810;8.818;2022-09-09T10:59:29;22.10;54.70
50548;DHT22;38013;48.810;8.818;2022-09-09T11:02:19;21.80;55.30
50548;DHT22;38013;48.810;8.818;2022-09-09T11:05:00;21.50;55.70
50548;DHT22;38013;48.810;8.818;2022-09-09T11:07:44;21.20;56.60
50548;DHT22;38013;48.810;8.818;2022-09-09T11:10:33;20.90;57.10
50548;DHT22;38013;48.810;8.818;2022-09-09T11:13:11;20.60;58.10
50548;DHT22;38013;48.810;8.818;2022-09-09T11:16:17;20.40;58.80
50548;DHT22;38013;48.810;8.818;2022-09-09T11:18:46;20.10;60.20
50548;DHT22;38013;48.810;8.818;2022-09-09T11:21:21;19.90;60.40
50548;DHT22;38013;48.810;8.818;2022-09-09T11:24:10;19.70;62.00
50548;DHT22;38013;48.810;8.818;2022-09-09T11:27:01;19.50;63.00
50548;DHT22;38013;48.810;8.818;2022-09-09T11:42:24;19.40;67.00
50548;DHT22;38013;48.810;8.818;2022-09-09T11:44:50;19.60;66.50
50548;DHT22;38013;48.810;8.818;2022-09-09T11:47:30;19.80;66.00
50548;DHT22;38013;48.810;8.818;2022-09-09T11:52:45;20.40;64.30
50548;DHT22;38013;48.810;8.818;2022-09-09T11:55:31;20.60;63.50
50548;DHT22;38013;48.810;8.818;2022-09-09T12:00:43;21.10;62.10
50548;DHT22;38013;48.810;8.818;2022-09-09T12:03:46;21.30;60.40
50548;DHT22;38013;48.810;8.818;2022-09-09T12:06:41;21.50;59.30
50548;DHT22;38013;48.810;8.818;2022-09-09T12:12:37;22.00;57.80
50548;DHT22;38013;48.810;8.818;2022-09-09T12:15:19;22.30;57.10
50548;DHT22;38013;48.810;8.818;2022-09-09T12:17:53;22.50;56.00
50548;DHT22;38013;48.810;8.818;2022-09-09T12:23:24;22.80;56.80
50548;DHT22;38013;48.810;8.818;2022-09-09T12:32:11;23.50;54.20
50548;DHT22;38013;48.810;8.818;2022-09-09T12:34:52;23.80;55.20
50548;DHT22;38013;48.810;8.818;2022-09-09T12:37:40;24.10;54.10
50548;DHT22;38013;48.810;8.818;2022-09-09T12:40:24;24.40;53.20
50548;DHT22;38013;48.810;8.818;2022-09-09T12:43:01;24.70;52.90
50548;DHT22;38013;48.810;8.818;2022-09-09T12:45:40;25.00;52.00
50548;DHT22;38013;48.810;8.818;2022-09-09T12:48:08;25.30;51.80
50548;DHT22;38013;48.810;8.818;2022-09-09T12:50:43;25.50;51.10
50548;DHT22;38013;48.810;8.818;2022-09-09T12:53:27;25.50;50.90
50548;DHT22;38013;48.810;8.818;2022-09-09T12:56:06;25.70;49.30
50548;DHT22;38013;48.810;8.818;2022-09-09T12:58:34;25.90;49.10
50548;DHT22;38013;48.810;8.818;2022-09-09T13:01:03;25.90;49.60
50548;DHT22;38013;48.810;8.818;2022-09-09T13:03:31;26.20;48.10
50548;DHT22;38013;48.810;8.818;2022-09-09T13:06:10;26.20;47.10
50548;DHT22;38013;48.810;8.818;2022-09-09T13:08:37;26.20;47.30
50548;DHT22;38013;48.810;8.818;2022-09-09T13:11:10;26.20;46.90
50548;DHT22;38013;48.810;8.818;2022-09-09T13:13:43;26.10;46.50
50548;DHT22;38013;48.810;8.818;2022-09-09T13:19:08;25.90;45.70
50548;DHT22;38013;48.810;8.818;2022-09-09T13:21:37;25.70;46.70
50548;DHT22;38013;48.810;8.818;2022-09-09T13:24:06;25.60;47.10
50548;DHT22;38013;48.810;8.818;2022-09-09T13:27:01;25.50;46.00
50548;DHT22;38013;48.810;8.818;2022-09-09T13:29:30;25.30;45.20
50548;DHT22;38013;48.810;8.818;2022-09-09T13:32:15;25.20;46.40
50548;DHT22;38013;48.810;8.818;2022-09-09T13:34:51;25.10;46.60
50548;DHT22;38013;48.810;8.818;2022-09-09T13:40:00;25.10;47.10
50548;DHT22;38013;48.810;8.818;2022-09-09T13:42:32;25.20;48.60
50548;DHT22;38013;48.810;8.818;2022-09-09T13:45:04;25.20;47.90
50548;DHT22;38013;48.810;8.818;2022-09-09T13:47:35;25.30;48.30
50548;DHT22;38013;48.810;8.818;2022-09-09T13:50:30;25.40;48.30
50548;DHT22;38013;48.810;8.818;2022-09-09T13:52:58;25.60;47.80
50548;DHT22;38013;48.810;8.818;2022-09-09T13:55:27;25.90;47.10
50548;DHT22;38013;48.810;8.818;2022-09-09T13:57:55;26.10;46.50
50548;DHT22;38013;48.810;8.818;2022-09-09T14:00:22;26.30;45.90
50548;DHT22;38013;48.810;8.818;2022-09-09T14:02:49;26.60;45.60
50548;DHT22;38013;48.810;8.818;2022-09-09T14:05:16;26.80;45.50
50548;DHT22;38013;48.810;8.818;2022-09-09T14:07:43;27.00;44.80
50548;DHT22;38013;48.810;8.818;2022-09-09T14:10:11;27.10;43.80
50548;DHT22;38013;48.810;8.818;2022-09-09T14:12:37;26.90;43.30
50548;DHT22;38013;48.810;8.818;2022-09-09T14:15:04;26.80;43.50
50548;DHT22;38013;48.810;8.818;2022-09-09T14:17:31;26.60;42.80
50548;DHT22;38013;48.810;8.818;2022-09-09T14:19:57;26.40;43.00
50548;DHT22;38013;48.810;8.818;2022-09-09T14:22:23;26.20;43.80
50548;DHT22;38013;48.810;8.818;2022-09-09T14:24:50;26.10;43.90
50548;DHT22;38013;48.810;8.818;2022-09-09T14:27:16;25.90;44.20
50548;DHT22;38013;48.810;8.818;2022-09-09T14:29:44;25.70;44.30
50548;DHT22;38013;48.810;8.818;2022-09-09T14:32:10;25.50;44.10
50548;DHT22;38013;48.810;8.818;2022-09-09T14:34:37;25.30;42.70
50548;DHT22;38013;48.810;8.818;2022-09-09T14:37:03;25.10;42.60
50548;DHT22;38013;48.810;8.818;2022-09-09T14:39:29;24.90;42.70
50548;DHT22;38013;48.810;8.818;2022-09-09T14:41:55;24.70;43.20
50548;DHT22;38013;48.810;8.818;2022-09-09T14:44:20;24.60;44.50
50548;DHT22;38013;48.810;8.818;2022-09-09T14:46:47;24.70;45.10
50548;DHT22;38013;48.810;8.818;2022-09-09T14:49:15;24.90;45.60
50548;DHT22;38013;48.810;8.818;2022-09-09T14:51:41;25.20;45.50
50548;DHT22;38013;48.810;8.818;2022-09-09T14:54:07;25.40;45.00
50548;DHT22;38013;48.810;8.818;2022-09-09T14:56:33;25.60;45.00
50548;DHT22;38013;48.810;8.818;2022-09-09T14:59:03;25.80;44.60
50548;DHT22;38013;48.810;8.818;2022-09-09T15:01:30;25.90;44.50
50548;DHT22;38013;48.810;8.818;2022-09-09T15:04:03;26.00;44.40
50548;DHT22;38013;48.810;8.818;2022-09-09T15:06:32;26.20;44.90
50548;DHT22;38013;48.810;8.818;2022-09-09T15:09:00;26.50;45.70
50548;DHT22;38013;48.810;8.818;2022-09-09T15:11:27;26.90;45.60
50548;DHT22;38013;48.810;8.818;2022-09-09T15:13:56;27.30;44.70
50548;DHT22;38013;48.810;8.818;2022-09-09T15:16:25;27.80;44.50
50548;DHT22;38013;48.810;8.818;2022-09-09T15:18:54;28.20;43.70
50548;DHT22;38013;48.810;8.818;2022-09-09T15:21:22;28.50;42.10
50548;DHT22;38013;48.810;8.818;2022-09-09T15:23:49;28.60;41.90
50548;DHT22;38013;48.810;8.818;2022-09-09T15:26:16;28.70;41.00
50548;DHT22;38013;48.810;8.818;2022-09-09T15:28:44;28.50;39.70
50548;DHT22;38013;48.810;8.818;2022-09-09T15:31:13;28.20;39.70
50548;DHT22;38013;48.810;8.818;2022-09-09T15:33:40;27.90;39.80
50548;DHT22;38013;48.810;8.818;2022-09-09T15:36:20;27.50;40.10
50548;DHT22;38013;48.810;8.818;2022-09-09T15:38:48;27.10;40.10
50548;DHT22;38013;48.810;8.818;2022-09-09T15:41:14;26.70;40.70
50548;DHT22;38013;48.810;8.818;2022-09-09T15:43:44;26.40;41.20
50548;DHT22;38013;48.810;8.818;2022-09-09T15:48:44;25.60;42.10
50548;DHT22;38013;48.810;8.818;2022-09-09T15:51:10;25.40;42.60
50548;DHT22;38013;48.810;8.818;2022-09-09T15:53:39;25.10;43.80
50548;DHT22;38013;48.810;8.818;2022-09-09T15:56:06;24.80;43.50
50548;DHT22;38013;48.810;8.818;2022-09-09T15:58:33;24.50;43.70
50548;DHT22;38013;48.810;8.818;2022-09-09T16:01:09;24.20;44.70
50548;DHT22;38013;48.810;8.818;2022-09-09T16:03:40;23.80;45.00
50548;DHT22;38013;48.810;8.818;2022-09-09T16:06:08;23.40;45.20
50548;DHT22;38013;48.810;8.818;2022-09-09T16:08:36;23.10;46.00
50548;DHT22;38013;48.810;8.818;2022-09-09T16:11:10;22.70;46.60
50548;DHT22;38013;48.810;8.818;2022-09-09T16:13:40;22.30;47.40
50548;DHT22;38013;48.810;8.818;2022-09-09T16:16:07;21.90;47.80
50548;DHT22;38013;48.810;8.818;2022-09-09T16:18:36;21.50;48.40
50548;DHT22;38013;48.810;8.818;2022-09-09T16:21:04;21.30;49.20
50548;DHT22;38013;48.810;8.818;2022-09-09T16:23:34;21.00;50.00
50548;DHT22;38013;48.810;8.818;2022-09-09T16:26:00;20.70;51.40
50548;DHT22;38013;48.810;8.818;2022-09-09T16:28:27;20.50;52.40
50548;DHT22;38013;48.810;8.818;2022-09-09T16:30:53;20.40;53.50
50548;DHT22;38013;48.810;8.818;2022-09-09T16:33:19;20.30;55.20
50548;DHT22;38013;48.810;8.818;2022-09-09T16:35:45;20.40;55.40
50548;DHT22;38013;48.810;8.818;2022-09-09T16:38:11;20.30;56.60
50548;DHT22;38013;48.810;8.818;2022-09-09T16:40:38;20.40;57.10
50548;DHT22;38013;48.810;8.818;2022-09-09T16:43:04;20.50;57.40
50548;DHT22;38013;48.810;8.818;2022-09-09T16:45:31;20.60;57.60
50548;DHT22;38013;48.810;8.818;2022-09-09T16:47:58;20.60;57.60
50548;DHT22;38013;48.810;8.818;2022-09-09T16:50:25;20.60;58.10
50548;DHT22;38013;48.810;8.818;2022-09-09T16:52:52;20.70;57.50
50548;DHT22;38013;48.810;8.818;2022-09-09T16:55:18;20.60;57.70
50548;DHT22;38013;48.810;8.818;2022-09-09T16:57:46;20.60;57.30
50548;DHT22;38013;48.810;8.818;2022-09-09T17:00:15;20.60;57.80
50548;DHT22;38013;48.810;8.818;2022-09-09T17:02:43;20.50;56.90
50548;DHT22;38013;48.810;8.818;2022-09-09T17:05:11;20.50;57.20
50548;DHT22;38013;48.810;8.818;2022-09-09T17:07:38;20.40;57.40
50548;DHT22;38013;48.810;8.818;2022-09-09T17:10:06;20.20;57.30
50548;DHT22;38013;48.810;8.818;2022-09-09T17:12:32;20.20;57.30
50548;DHT22;38013;48.810;8.818;2022-09-09T17:14:58;20.10;57.10
50548;DHT22;38013;48.810;8.818;2022-09-09T17:17:26;20.00;57.40
50548;DHT22;38013;48.810;8.818;2022-09-09T17:19:52;19.80;57.90
50548;DHT22;38013;48.810;8.818;2022-09-09T17:22:18;19.80;58.30
50548;DHT22;38013;48.810;8.818;2022-09-09T17:24:45;19.70;58.40